Boca Raton, FL (33427)

4:21 AM EST on February 25, 2017 (GMT -0500)
Boca Villas | | Change Station
Active Advisory: Special Statement

Elev 23 ft 26.36 °N, 80.08 °W | Updated 4 minutes ago

Partly Cloudy
Partly Cloudy
65.8 °F
Feels Like 65.8 °F
N
0.0
Wind Variable Wind from ENE
Gusts 1.0 mph

Today
High -- | Low -- °F
--% Chance of Precip.
Yesterday
High -- | Low -- °F
Precip. -- in
Pressure 29.85 in
Visibility 8.0 miles
Clouds Clear
Dew Point 65 °F
Humidity 96%
Rainfall 0.00 in
Snow Depth Not available.
6:47 AM 6:19 PM
Waning Crescent, 2% visible
METAR KPMP 250853Z AUTO 25003KT 8SM CLR 20/18 A2985 RMK AO2 SLP107 T02000183 55003
Pressure 29.85 in
Visibility 8.0 miles
Clouds Clear
Dew Point 65 °F
Humidity 96%
Rainfall 0.00 in
Snow Depth Not available.
6:47 AM 6:19 PM
Waning Crescent, 2% visible
METAR KPMP 250853Z AUTO 25003KT 8SM CLR 20/18 A2985 RMK AO2 SLP107 T02000183 55003

Get Your Daily Forecast Email!

Thanks for signing up!

Be on the lookout for a verification email in your inbox.

You'll start receiving the daily forecast at 8 AM.

×

10-Day Weather Forecast

Almanac

Astronomy

Feb. 25, 2017 Rise Set
Actual Time
Civil Twilight
Nautical Twilight
Astronomical Twilight
Moon
Length of Visible Light
Length of Day
Tomorrow will be .
, % of the Moon is Illuminated

Today's Extremes

State Highs State Lows

Community

WunderPhotos

Upload Photos

1,962,540 photos uploaded!

WunderBlog® & News

Nearby

Air Quality

  Air Quality AQ Index Pollutant
Not available.

Snow Depth

Station Depth Elevation

Earthquake Activity

City Distance Mag. Time & Date
Minimum magnitude displayed is 2.5.

Coastal Water Temperatures

Place Temperature

Stations

Nearby Weather Stations

Station Location Temp. Windchill Dew Point Humidity Wind Precip. Elev Updated Type
                   

Watches & Warnings

Special Statement
Issued: 2:34 AM EST Feb. 25, 2017 – National Weather Service

... Patchy dense fog developing across portions of South Florida...

Observations across the area as well as satellite images indicate
low level clouds with embedded fog are developing across portions
of South Florida at this time particularly across portions of
Broward and Miami Dade counties and west across The Everglades
and north towards the Lake Okeechobee region including the Naples
area. Embedded within the fog there are isolated patches with
visibilities less than 1/2 a mile. Motorists are advised to
exercise caution this morning. The fog and low level clouds should
dissipate within an hour or two after sunrise.

Dense fog advisory might become necessary later this morning if
conditions worsen.